Bixby, Nebraska
Current Conditions -  °F | °C
As of 4:35 AM on Friday 31 Oct 2014 (Local Time) from KAUH Reporting Station
Overcast Overcast  
Wind Chill: 24°   Ceiling: 2300
Heat Index: 33°   Visibility: 10mi
Dew Point: 24°   Wind: 14mph
Humidity: 68%   Direction: 10°N
Pressure: 30.5"   Gusts: NA
Location:  40.6539°N, 97.8811°W
Report Text: KAUH 310935Z AUTO 01012KT 10SM OVC023 01/M04 A3050 RMK AO2 T00081045
Loading
Personal Weather Stations






























Interactive Weather Map
Tropical Storm Tracking
New forecast layout! Learn more

10-Day Weather Forecast

Advertisements
Track Severe Weather on mobile